메인 페이지
METAR-TAF:

METAR-TAF

공항 :

Wichita Falls Municipal Airport / Sheppard Air Force Base

위치토폴스, 텍사스, 미국

위도: 33-58-43N, 경도: 098-29-34W, 고도: 309m

현재 날씨관측

예보는 57분 전, 18:52시(UTC)에 발표되었습니다.
남서27kt, 순간 최대 풍속 35kt
온도 24°C
습도 31%
기압 1001 hPa
시정: 16.1km
고도 4000ft 상공 구름 조금

METAR: KSPS 211852Z 22027G35KT 10SM FEW040 24/06 A2955 RMK AO2 PK WND 23035/1842 SLP995 T02390056

시각: 14:49 (19:49 UTC)

예보

예보는 2 시간 25분 전, 17:24시(UTC)에 발표되었습니다.
예보 대상 시간: 21일 18시부터 22일 18시까지 (UTC)
남서26kt, 순간 최대 풍속 38kt
시정: 10km
맑음
22일 0100시부터 (UTC)
16kt
시정: 10km
맑음

TAF: KSPS 211724Z 2118/2218 22026G38KT P6SM SKC FM220100 18016KT P6SM SKC

4,000개 이상의 공항 관측 자료 및 예보 (METAR 및 TAF 보고).

지도상에서 검색 가능한 기상관측소가 노란 점과 빨간 점으로 표시되어 있습니다.

기상관측소 명을 보려면 표시 위로 마우스를 이동하세요.

날씨 관측과 예보를 보려면 클릭하세요.

지도 변경 : 확대하려면 엑스 표시가 있는 녹색 버튼, 축소하려면 빼기 표시가 있는 녹색 버튼, 다음 페이지의 지도를 보려면 녹색 화살표를 클릭하세요.


METAR-TAF: